Airfield :
LOGIN :

Register | Disclaimer

   EN    FR    IT 

 










Legend :    VFR   Marginal VFR   IFR   Intensive IFR   Very Intensive IFR
Visi :
Ceiling :
>= 8 km
>= 3000ft
5 to 8 km
1000 to 3000 ft
1500m to 5 km
500 to 1000 ft
800 to 1500m
200 to 500 ft
< 800m
< 200 ft
Symbols :   Thunderstorms  Fog  Heavy snow  Heavy precipitations  Wind > 20 kt
SIGMETs :     Misc.  Thunderstorms  Icing  Turbulence  Mountain Waves  Volcanic Ashes







- Airport Elevation : 100 ft


EBDT - Schaffen

CURRENT METAR :
  • 160755Z 21010KT 9999 BKN030 06/02 Q1012 BLU BLU

EXPIRED METARs :
  • 160725Z 20008KT 9999 BKN031 06/02 Q1012 BLU BLU
  • 160655Z 20011KT 9999 BKN031 06/02 Q1012 BLU BLU
  • 160625Z 20010KT 9999 BKN031 06/02 Q1012 BLU BLU
  • 160555Z 20010KT 9999 BKN031 06/03 Q1012 BLU BLU
  • 160525Z 20010KT 9999 BKN031 06/03 Q1013 BLU BLU

TAF TAF EBDT
Valid from the 16 at 07:00 until the 16 at 16:00 UTC


160541Z 1607/1616 21010KT 9999 FEW020 BKN030
PROB40
TEMPO 1607/1616 21012G22KT
No reported NOTAMs for that airfield.



MET'MAP, your aeronautical weather chart ! - Copyright ORBIFLY December 2007 - Disclaimer

ORBIFLY MET'MAP TEAM :

Programming & Development : Alexandra Zaïnal
Concept & Development : Baudouin d'Aumeries
Co-Development & Prog : Marc-Olivier Méhu
Technical & hardware support : Manuel Goepfert

Contact : metmap@orbifly.com




SOURCES & CREDITS :

   NOAA